Time,TemperatureF,DewpointF,PressureIn,WindDirection,WindDirectionDegrees,WindSpeedMPH,WindSpeedGustMPH,Humidity,HourlyPrecipIn,Conditions,Clouds,dailyrainin,SolarRadiationWatts/m^2,SoftwareType,DateUTC
2013-11-08 00:01:00,67.0,27.0,-100.00,NE,36,5.0,7.0,22,0.00,,,0.00,1.000000,,2013-11-08 07:01:00,
2013-11-08 00:42:00,62.0,29.0,-100.00,NE,53,2.0,6.0,28,0.00,,,0.00,1.000000,,2013-11-08 07:42:00,
2013-11-08 00:52:00,62.0,29.0,-100.00,NE,53,2.0,6.0,28,0.00,,,0.00,1.000000,,2013-11-08 07:52:00,
2013-11-08 01:02:00,62.0,29.0,-100.00,NE,53,2.0,6.0,28,0.00,,,0.00,1.000000,,2013-11-08 08:02:00,
2013-11-08 01:42:00,58.0,26.0,-100.00,NNW,341,2.0,4.0,29,0.00,,,0.00,1.000000,,2013-11-08 08:42:00,
2013-11-08 01:52:00,58.0,26.0,-100.00,NNW,341,2.0,4.0,29,0.00,,,0.00,1.000000,,2013-11-08 08:52:00,
2013-11-08 02:03:00,58.0,26.0,-100.00,NNW,341,2.0,4.0,29,0.00,,,0.00,1.000000,,2013-11-08 09:03:00,
2013-11-08 02:43:00,55.0,26.0,-100.00,NNW,346,4.0,5.0,33,0.00,,,0.00,1.000000,,2013-11-08 09:43:00,
2013-11-08 02:53:00,55.0,26.0,-100.00,NNW,346,4.0,5.0,33,0.00,,,0.00,1.000000,,2013-11-08 09:53:00,
2013-11-08 03:03:00,55.0,26.0,-100.00,NNW,346,4.0,5.0,33,0.00,,,0.00,1.000000,,2013-11-08 10:03:00,
2013-11-08 03:43:00,53.0,28.0,-100.00,NNW,337,2.0,5.0,38,0.00,,,0.00,1.000000,,2013-11-08 10:43:00,
2013-11-08 03:53:00,53.0,28.0,-100.00,NNW,337,2.0,5.0,38,0.00,,,0.00,1.000000,,2013-11-08 10:53:00,
2013-11-08 04:02:00,53.0,28.0,-100.00,NNW,337,2.0,5.0,38,0.00,,,0.00,1.000000,,2013-11-08 11:02:00,
2013-11-08 04:42:00,51.0,28.0,-100.00,NNW,335,3.0,5.0,40,0.00,,,0.00,1.000000,,2013-11-08 11:42:00,
2013-11-08 04:52:00,51.0,28.0,-100.00,NNW,335,3.0,5.0,40,0.00,,,0.00,1.000000,,2013-11-08 11:52:00,
2013-11-08 05:02:00,51.0,28.0,-100.00,NNW,335,3.0,5.0,40,0.00,,,0.00,1.000000,,2013-11-08 12:02:00,
2013-11-08 05:42:00,51.0,28.0,-100.00,NW,323,3.0,5.0,40,0.00,,,0.00,1.000000,,2013-11-08 12:42:00,
2013-11-08 05:52:00,51.0,28.0,-100.00,NW,323,3.0,5.0,40,0.00,,,0.00,1.000000,,2013-11-08 12:52:00,
2013-11-08 06:01:00,51.0,28.0,-100.00,NW,323,3.0,5.0,40,0.00,,,0.00,1.000000,,2013-11-08 13:01:00,
2013-11-08 06:42:00,51.0,30.0,-100.00,NNW,329,2.0,5.0,44,0.00,,,-99.99,1.000000,,2013-11-08 13:42:00,
2013-11-08 06:52:00,51.0,30.0,-100.00,NNW,329,2.0,5.0,44,0.00,,,-99.99,1.000000,,2013-11-08 13:52:00,
2013-11-08 07:01:00,51.0,30.0,-100.00,NNW,329,2.0,5.0,44,0.00,,,-99.99,1.000000,,2013-11-08 14:01:00,
2013-11-08 07:42:00,50.0,30.0,-100.00,NW,322,3.0,5.0,46,0.00,,,0.00,4.000000,,2013-11-08 14:42:00,
2013-11-08 07:52:00,50.0,30.0,-100.00,NW,322,3.0,5.0,46,0.00,,,0.00,4.000000,,2013-11-08 14:52:00,
2013-11-08 08:01:00,50.0,30.0,-100.00,NW,322,3.0,5.0,46,0.00,,,0.00,4.000000,,2013-11-08 15:01:00,
2013-11-08 08:44:00,62.0,35.0,-100.00,WNW,298,3.0,5.0,36,0.00,,,0.00,119.000000,,2013-11-08 15:44:00,
2013-11-08 08:53:00,62.0,35.0,-100.00,WNW,298,3.0,5.0,36,0.00,,,0.00,119.000000,,2013-11-08 15:53:00,
2013-11-08 09:03:00,62.0,35.0,-100.00,WNW,298,3.0,5.0,36,0.00,,,0.00,119.000000,,2013-11-08 16:03:00,
2013-11-08 09:42:00,69.0,35.0,-100.00,WNW,289,3.0,5.0,28,0.00,,,0.00,316.000000,,2013-11-08 16:42:00,
2013-11-08 09:53:00,69.0,35.0,-100.00,WNW,289,3.0,5.0,28,0.00,,,0.00,316.000000,,2013-11-08 16:53:00,
2013-11-08 10:02:00,69.0,35.0,-100.00,WNW,289,3.0,5.0,28,0.00,,,0.00,316.000000,,2013-11-08 17:02:00,
2013-11-08 10:43:00,74.0,35.0,-100.00,SW,224,3.0,5.0,24,0.00,,,0.00,487.000000,,2013-11-08 17:43:00,
2013-11-08 10:52:00,74.0,35.0,-100.00,SW,224,3.0,5.0,24,0.00,,,0.00,487.000000,,2013-11-08 17:52:00,
2013-11-08 11:02:00,74.0,35.0,-100.00,SW,224,3.0,5.0,24,0.00,,,0.00,487.000000,,2013-11-08 18:02:00,
2013-11-08 11:43:00,80.0,35.0,-100.00,SSW,195,4.0,6.0,20,0.00,,,0.00,614.000000,,2013-11-08 18:43:00,
2013-11-08 11:52:00,80.0,35.0,-100.00,SSW,195,4.0,6.0,20,0.00,,,0.00,614.000000,,2013-11-08 18:52:00,
2013-11-08 12:01:00,80.0,35.0,-100.00,SSW,195,4.0,6.0,20,0.00,,,0.00,614.000000,,2013-11-08 19:01:00,
2013-11-08 12:42:00,83.0,35.0,-100.00,WSW,244,4.0,7.0,18,0.00,,,0.00,683.000000,,2013-11-08 19:42:00,
2013-11-08 12:52:00,83.0,35.0,-100.00,WSW,244,4.0,7.0,18,0.00,,,0.00,683.000000,,2013-11-08 19:52:00,
2013-11-08 13:02:00,83.0,35.0,-100.00,WSW,244,4.0,7.0,18,0.00,,,0.00,683.000000,,2013-11-08 20:02:00,
2013-11-08 13:42:00,83.0,32.0,-100.00,WSW,242,7.0,13.0,16,0.00,,,0.00,688.000000,,2013-11-08 20:42:00,
2013-11-08 13:52:00,83.0,32.0,-100.00,WSW,242,7.0,13.0,16,0.00,,,0.00,688.000000,,2013-11-08 20:52:00,
2013-11-08 14:02:00,83.0,32.0,-100.00,WSW,242,7.0,13.0,16,0.00,,,0.00,688.000000,,2013-11-08 21:02:00,
2013-11-08 14:44:00,83.0,32.0,-100.00,WSW,248,7.0,14.0,16,0.00,,,0.00,625.000000,,2013-11-08 21:44:00,
2013-11-08 14:54:00,83.0,32.0,-100.00,WSW,248,7.0,14.0,16,0.00,,,0.00,625.000000,,2013-11-08 21:54:00,
2013-11-08 15:04:00,83.0,32.0,-100.00,WSW,248,7.0,14.0,16,0.00,,,0.00,625.000000,,2013-11-08 22:04:00,
2013-11-08 15:43:00,83.0,32.0,-100.00,WSW,242,6.0,13.0,16,0.00,,,-99.99,503.000000,,2013-11-08 22:43:00,
2013-11-08 15:53:00,83.0,32.0,-100.00,WSW,242,6.0,13.0,16,0.00,,,-99.99,503.000000,,2013-11-08 22:53:00,
2013-11-08 16:02:00,83.0,32.0,-100.00,WSW,242,6.0,13.0,16,0.00,,,-99.99,503.000000,,2013-11-08 23:02:00,
2013-11-08 16:43:00,82.0,31.0,-100.00,West,272,6.0,13.0,16,0.00,,,0.00,330.000000,,2013-11-08 23:43:00,
2013-11-08 16:53:00,82.0,31.0,-100.00,West,272,6.0,13.0,16,0.00,,,0.00,330.000000,,2013-11-08 23:53:00,
2013-11-08 17:01:00,82.0,31.0,-100.00,West,272,6.0,13.0,16,0.00,,,0.00,330.000000,,2013-11-09 00:01:00,
2013-11-08 17:42:00,79.0,30.0,-100.00,West,268,4.0,9.0,17,0.00,,,0.00,138.000000,,2013-11-09 00:42:00,
2013-11-08 17:52:00,79.0,30.0,-100.00,West,268,4.0,9.0,17,0.00,,,0.00,138.000000,,2013-11-09 00:52:00,
2013-11-08 18:02:00,79.0,30.0,-100.00,West,268,4.0,9.0,17,0.00,,,0.00,138.000000,,2013-11-09 01:02:00,
2013-11-08 18:42:00,68.0,30.0,-100.00,North,358,4.0,5.0,24,0.00,,,0.00,7.000000,,2013-11-09 01:42:00,
2013-11-08 18:52:00,68.0,30.0,-100.00,North,358,4.0,5.0,24,0.00,,,0.00,7.000000,,2013-11-09 01:52:00,
2013-11-08 19:02:00,68.0,30.0,-100.00,North,358,4.0,5.0,24,0.00,,,0.00,7.000000,,2013-11-09 02:02:00,
2013-11-08 19:42:00,72.0,31.0,-100.00,NNE,29,7.0,11.0,22,0.00,,,0.00,1.000000,,2013-11-09 02:42:00,
2013-11-08 19:52:00,72.0,31.0,-100.00,NNE,29,7.0,11.0,22,0.00,,,0.00,1.000000,,2013-11-09 02:52:00,
2013-11-08 20:02:00,72.0,31.0,-100.00,NNE,29,7.0,11.0,22,0.00,,,0.00,1.000000,,2013-11-09 03:02:00,
2013-11-08 20:44:00,67.0,30.0,-100.00,West,271,2.0,11.0,25,0.00,,,0.00,1.000000,,2013-11-09 03:44:00,
2013-11-08 20:54:00,67.0,30.0,-100.00,West,271,2.0,11.0,25,0.00,,,0.00,1.000000,,2013-11-09 03:54:00,
2013-11-08 21:04:00,67.0,30.0,-100.00,West,271,2.0,11.0,25,0.00,,,0.00,1.000000,,2013-11-09 04:04:00,
2013-11-08 21:43:00,61.0,31.0,-100.00,WSW,247,2.0,4.0,32,0.00,,,0.00,1.000000,,2013-11-09 04:43:00,
2013-11-08 21:53:00,61.0,31.0,-100.00,WSW,247,2.0,4.0,32,0.00,,,0.00,1.000000,,2013-11-09 04:53:00,
2013-11-08 22:03:00,61.0,31.0,-100.00,WSW,247,2.0,4.0,32,0.00,,,0.00,1.000000,,2013-11-09 05:03:00,
2013-11-08 22:44:00,59.0,31.0,-100.00,North,358,3.0,6.0,34,0.00,,,0.00,1.000000,,2013-11-09 05:44:00,
2013-11-08 22:53:00,59.0,31.0,-100.00,North,358,3.0,6.0,34,0.00,,,0.00,1.000000,,2013-11-09 05:53:00,
2013-11-08 23:03:00,59.0,31.0,-100.00,North,358,3.0,6.0,34,0.00,,,0.00,1.000000,,2013-11-09 06:03:00,
2013-11-08 23:43:00,57.0,30.0,-100.00,ESE,120,2.0,5.0,35,0.00,,,0.00,1.000000,,2013-11-09 06:43:00,
2013-11-08 23:54:00,57.0,30.0,-100.00,ESE,120,2.0,5.0,35,0.00,,,0.00,1.000000,,2013-11-09 06:54:00,